createdAt,value
2019-02-15T00:04:08.691Z,60.89
2019-02-15T00:09:16.764Z,60.87
2019-02-15T00:14:22.344Z,60.88
2019-02-15T00:19:38.993Z,60.13
2019-02-15T00:24:50.006Z,60.83
2019-02-15T00:29:56.536Z,60.83
2019-02-15T00:35:04.942Z,60.85
2019-02-15T00:40:13.742Z,60.85
2019-02-15T00:45:22.666Z,59.92
2019-02-15T00:51:08.593Z,61.25
2019-02-15T00:56:40.405Z,60.42
2019-02-15T01:02:19.735Z,60.96
2019-02-15T01:08:04.762Z,60.77
2019-02-15T01:13:16.110Z,61.45
2019-02-15T01:18:22.714Z,60.65
2019-02-15T01:23:28.261Z,61.52
2019-02-15T01:29:10.918Z,60.83
2019-02-15T01:34:30.804Z,61.83
2019-02-15T01:40:00.305Z,61.62
2019-02-15T01:45:31.973Z,61.17
2019-02-15T01:50:39.977Z,60.98
2019-02-15T01:55:45.545Z,61.90
2019-02-15T02:00:53.669Z,62.44
2019-02-15T02:05:59.290Z,61.85
2019-02-15T02:11:09.080Z,63.02
2019-02-15T02:16:17.952Z,62.13
2019-02-15T02:21:24.172Z,62.39
2019-02-15T02:26:30.742Z,62.87
2019-02-15T02:31:36.344Z,62.41
2019-02-15T02:36:49.621Z,62.59
2019-02-15T02:41:56.890Z,63.29
2019-02-15T02:47:09.699Z,63.20
2019-02-15T02:52:15.292Z,63.02
2019-02-15T02:57:22.732Z,63.17
2019-02-15T03:02:28.340Z,63.95
2019-02-15T03:07:33.999Z,63.73
2019-02-15T03:12:45.336Z,63.64
2019-02-15T03:17:50.900Z,63.33
2019-02-15T03:22:56.516Z,64.02
2019-02-15T03:28:02.566Z,63.50
2019-02-15T03:33:10.513Z,63.91
2019-02-15T03:38:22.862Z,64.09
2019-02-15T03:43:28.575Z,63.84
2019-02-15T03:48:34.146Z,64.23
2019-02-15T03:53:41.470Z,64.52
2019-02-15T03:58:47.071Z,64.03
2019-02-15T04:03:53.087Z,63.97
2019-02-15T04:09:17.597Z,64.32
2019-02-15T04:14:32.443Z,63.97
2019-02-15T04:19:31.466Z,64.13
2019-02-15T04:24:37.187Z,64.07
2019-02-15T04:29:43.204Z,64.02
2019-02-15T04:34:48.849Z,64.25
2019-02-15T04:39:54.842Z,64.26
2019-02-15T04:45:06.450Z,64.15
2019-02-15T04:50:18.548Z,64.15
2019-02-15T04:55:24.127Z,64.33
2019-02-15T05:00:34.883Z,64.42
2019-02-15T05:05:46.308Z,64.18
2019-02-15T05:10:56.233Z,64.75
2019-02-15T05:16:02.789Z,64.98
2019-02-15T05:21:08.434Z,64.68
2019-02-15T05:26:13.914Z,64.58
2019-02-15T05:31:21.535Z,65.35
2019-02-15T05:36:27.183Z,64.64
2019-02-15T05:41:32.801Z,65.34
2019-02-15T05:46:40.142Z,64.89
2019-02-15T05:51:49.441Z,65.42
2019-02-15T05:56:58.178Z,65.16
2019-02-15T06:02:05.386Z,65.36
2019-02-15T06:07:14.180Z,65.03
2019-02-15T06:12:21.111Z,66.31
2019-02-15T06:17:31.441Z,65.42
2019-02-15T06:22:37.008Z,66.07
2019-02-15T06:27:44.448Z,65.54
2019-02-15T06:32:52.681Z,65.00
2019-02-15T06:38:03.668Z,65.80
2019-02-15T06:43:09.369Z,65.34
2019-02-15T06:48:16.536Z,66.02
2019-02-15T06:53:23.561Z,66.06
2019-02-15T06:58:29.219Z,66.24
2019-02-15T07:03:44.843Z,66.16
2019-02-15T07:08:50.296Z,66.04
2019-02-15T07:13:57.841Z,65.88
2019-02-15T07:19:07.728Z,64.76
2019-02-15T07:24:18.536Z,62.33
2019-02-15T07:29:25.542Z,62.67
2019-02-15T07:34:42.190Z,62.52
2019-02-15T07:39:50.612Z,62.09
2019-02-15T07:45:00.436Z,60.72
2019-02-15T07:50:16.141Z,60.10
2019-02-15T07:55:24.175Z,59.54
2019-02-15T08:00:30.222Z,58.83
2019-02-15T08:05:38.465Z,58.53
2019-02-15T08:10:52.883Z,59.61
2019-02-15T08:16:07.154Z,58.46
2019-02-15T08:21:15.408Z,58.49
2019-02-15T08:26:23.730Z,58.17
2019-02-15T08:31:34.468Z,55.24
2019-02-15T08:36:50.850Z,55.24
2019-02-15T08:42:04.471Z,54.51
2019-02-15T08:47:18.408Z,54.59
2019-02-15T08:52:27.954Z,53.36
2019-02-15T08:57:35.266Z,52.87
2019-02-15T09:02:41.872Z,53.14
2019-02-15T09:07:49.291Z,51.20
2019-02-15T09:13:00.561Z,49.98
2019-02-15T09:23:19.274Z,46.72
2019-02-15T09:28:40.397Z,46.06
2019-02-15T09:33:49.449Z,45.39
2019-02-15T09:38:55.924Z,46.00
2019-02-15T09:44:07.644Z,45.42
2019-02-15T09:49:16.726Z,45.03
2019-02-15T09:54:27.262Z,43.20
2019-02-15T09:59:39.632Z,42.83
2019-02-15T10:04:45.275Z,43.07
2019-02-15T10:09:49.952Z,44.01
2019-02-15T10:14:57.168Z,43.20
2019-02-15T10:20:11.899Z,42.42
2019-02-15T10:25:25.666Z,40.83
2019-02-15T10:30:36.363Z,40.71
2019-02-15T10:35:49.467Z,36.21
2019-02-15T10:40:55.516Z,37.31
2019-02-15T10:46:07.575Z,38.91
2019-02-15T10:51:13.154Z,37.67
2019-02-15T10:56:24.191Z,35.41
2019-02-15T11:01:31.076Z,36.59
2019-02-15T11:06:38.961Z,36.81
2019-02-15T11:11:48.085Z,34.28
2019-02-15T11:17:03.202Z,33.79
2019-02-15T11:22:18.805Z,32.70
2019-02-15T11:27:32.281Z,32.48
2019-02-15T11:32:41.930Z,34.14
2019-02-15T11:37:54.480Z,33.59
2019-02-15T11:43:06.349Z,35.48
2019-02-15T11:48:32.517Z,35.56
2019-02-15T11:53:39.256Z,34.83
2019-02-15T11:58:48.858Z,32.84
2019-02-15T12:03:58.173Z,34.16
2019-02-15T12:09:10.432Z,34.85
2019-02-15T12:14:25.759Z,32.85
2019-02-15T12:19:42.958Z,33.88
2019-02-15T12:24:51.268Z,34.53
2019-02-15T12:30:01.889Z,34.58
2019-02-15T12:35:15.032Z,34.17
2019-02-15T12:40:21.938Z,33.68
2019-02-15T12:45:35.899Z,34.09
2019-02-15T12:50:46.474Z,33.51
2019-02-15T12:55:52.066Z,33.43
2019-02-15T13:00:57.768Z,34.06
2019-02-15T13:06:03.620Z,33.16
2019-02-15T13:11:12.418Z,33.00
2019-02-15T13:16:27.034Z,32.67
2019-02-15T13:21:35.096Z,32.32
2019-02-15T13:26:43.869Z,31.49
2019-02-15T13:31:49.646Z,33.17
2019-02-15T13:36:59.171Z,33.22
2019-02-15T13:42:07.907Z,34.10
2019-02-15T13:47:14.123Z,35.03
2019-02-15T13:52:29.698Z,34.53
2019-02-15T13:57:38.517Z,34.28
2019-02-15T14:02:45.141Z,34.82
2019-02-15T14:07:51.677Z,34.97
2019-02-15T14:13:00.673Z,34.93
2019-02-15T14:18:06.713Z,35.28
2019-02-15T14:23:14.016Z,35.62
2019-02-15T14:28:20.013Z,35.84
2019-02-15T14:33:25.833Z,36.61
2019-02-15T14:38:34.236Z,36.57
2019-02-15T14:43:42.278Z,36.56
2019-02-15T14:48:52.486Z,36.04
2019-02-15T14:53:58.211Z,36.46
2019-02-15T14:59:04.883Z,37.00
2019-02-15T15:04:10.795Z,37.63
2019-02-15T15:09:18.388Z,37.22
2019-02-15T15:14:26.121Z,38.06
2019-02-15T15:19:34.404Z,38.46
2019-02-15T15:24:39.997Z,39.08
2019-02-15T15:29:45.722Z,39.33
2019-02-15T15:34:55.218Z,39.55
2019-02-15T15:40:06.018Z,39.88
2019-02-15T15:45:15.218Z,40.79
2019-02-15T15:50:22.021Z,40.86
2019-02-15T15:55:30.038Z,40.41
2019-02-15T16:00:41.341Z,41.63
2019-02-15T16:05:50.305Z,41.70
2019-02-15T16:10:57.104Z,41.95
2019-02-15T16:16:02.951Z,41.89
2019-02-15T16:21:16.114Z,42.31
2019-02-15T16:26:25.636Z,43.21
2019-02-15T16:31:35.857Z,43.49
2019-02-15T16:36:44.761Z,43.80
2019-02-15T16:41:58.912Z,44.41
2019-02-15T16:47:05.673Z,44.52
2019-02-15T16:52:11.387Z,45.29
2019-02-15T16:57:17.355Z,45.54
2019-02-15T17:02:30.428Z,46.88
2019-02-15T17:07:36.128Z,47.40
2019-02-15T17:12:46.429Z,48.18
2019-02-15T17:17:56.199Z,48.80
2019-02-15T17:23:06.348Z,48.61
2019-02-15T17:28:29.573Z,49.11
2019-02-15T17:33:38.509Z,49.71
2019-02-15T17:38:45.358Z,50.31
2019-02-15T17:44:03.946Z,50.60
2019-02-15T17:49:12.557Z,50.67
2019-02-15T17:54:22.454Z,51.23
2019-02-15T17:59:28.628Z,51.34
2019-02-15T18:04:34.582Z,52.03
2019-02-15T18:09:45.098Z,52.46
2019-02-15T18:14:54.427Z,52.76
2019-02-15T18:20:05.114Z,53.29
2019-02-15T18:25:14.738Z,53.00
2019-02-15T18:30:23.372Z,53.40
2019-02-15T18:35:29.897Z,53.49
2019-02-15T18:40:39.363Z,54.16
2019-02-15T18:45:49.873Z,54.08
2019-02-15T18:50:56.061Z,53.67
2019-02-15T18:56:09.517Z,54.02
2019-02-15T19:01:27.167Z,54.77
2019-02-15T19:06:45.161Z,54.67
2019-02-15T19:11:52.055Z,55.34
2019-02-15T19:17:00.760Z,55.64
2019-02-15T19:22:29.121Z,55.47
2019-02-15T19:27:38.589Z,55.67
2019-02-15T19:32:49.343Z,56.67
2019-02-15T19:38:04.832Z,56.27
2019-02-15T19:43:11.936Z,56.47
2019-02-15T19:48:19.975Z,57.17
2019-02-15T19:53:28.314Z,57.21
2019-02-15T20:05:11.939Z,57.15
2019-02-15T20:10:28.461Z,57.36
2019-02-15T20:15:50.284Z,57.83
2019-02-15T20:20:59.814Z,59.11
2019-02-15T20:26:12.181Z,58.70
2019-02-15T20:31:29.470Z,58.32
2019-02-15T20:36:38.478Z,58.81
2019-02-15T20:41:50.690Z,58.64
2019-02-15T20:46:56.517Z,58.75
2019-02-15T20:52:06.316Z,59.01
2019-02-15T20:57:18.518Z,58.84
2019-02-15T21:02:32.189Z,59.27
2019-02-15T21:07:40.142Z,58.79
2019-02-15T21:12:48.935Z,58.76
2019-02-15T21:17:56.352Z,61.29
2019-02-15T21:23:11.138Z,60.95
2019-02-15T21:28:19.754Z,59.70
2019-02-15T21:33:28.389Z,61.96
2019-02-15T21:38:37.663Z,61.17
2019-02-15T21:43:45.856Z,60.29
2019-02-15T21:48:51.784Z,60.49
2019-02-15T21:54:08.772Z,60.97
2019-02-15T21:59:15.665Z,61.35
2019-02-15T22:04:23.959Z,60.72
2019-02-15T22:09:32.889Z,61.58
2019-02-15T22:14:40.136Z,61.27
2019-02-15T22:19:45.921Z,60.72
2019-02-15T22:24:52.627Z,62.09
2019-02-15T22:30:00.467Z,62.13
2019-02-15T22:35:10.707Z,62.71
2019-02-15T22:40:28.430Z,62.51
2019-02-15T22:45:34.304Z,62.88
2019-02-15T22:50:44.210Z,63.36
2019-02-15T22:55:52.991Z,62.69
2019-02-15T23:01:09.770Z,62.46
2019-02-15T23:06:20.266Z,63.15
2019-02-15T23:11:27.876Z,62.20
2019-02-15T23:16:38.909Z,64.16
2019-02-15T23:21:44.833Z,64.16
2019-02-15T23:26:55.483Z,62.71
2019-02-15T23:32:01.173Z,63.30
2019-02-15T23:37:09.457Z,63.16
2019-02-15T23:42:25.129Z,62.85
